sensor_id;sensor_type;location;lat;lon;timestamp;temperature;humidity
6740;DHT22;3407;49.882;10.920;2024-01-27T00:00:53;4.60;1.00
6740;DHT22;3407;49.882;10.920;2024-01-27T00:05:49;4.60;99.90
6740;DHT22;3407;49.882;10.920;2024-01-27T00:10:44;4.50;1.00
6740;DHT22;3407;49.882;10.920;2024-01-27T00:15:41;4.40;1.00
6740;DHT22;3407;49.882;10.920;2024-01-27T00:20:36;4.30;99.90
6740;DHT22;3407;49.882;10.920;2024-01-27T00:25:33;4.20;1.00
6740;DHT22;3407;49.882;10.920;2024-01-27T00:30:28;4.10;1.00
6740;DHT22;3407;49.882;10.920;2024-01-27T00:35:24;4.00;99.90
6740;DHT22;3407;49.882;10.920;2024-01-27T00:40:19;4.00;27.00
6740;DHT22;3407;49.882;10.920;2024-01-27T00:45:15;3.90;99.90
6740;DHT22;3407;49.882;10.920;2024-01-27T00:50:10;3.80;1.00
6740;DHT22;3407;49.882;10.920;2024-01-27T00:55:06;3.70;1.00
6740;DHT22;3407;49.882;10.920;2024-01-27T01:00:02;3.60;1.00
6740;DHT22;3407;49.882;10.920;2024-01-27T01:04:58;3.60;99.90
6740;DHT22;3407;49.882;10.920;2024-01-27T01:09:53;3.50;99.90
6740;DHT22;3407;49.882;10.920;2024-01-27T01:14:49;3.50;99.90
6740;DHT22;3407;49.882;10.920;2024-01-27T01:19:44;3.50;99.90
6740;DHT22;3407;49.882;10.920;2024-01-27T01:24:40;3.40;99.90
6740;DHT22;3407;49.882;10.920;2024-01-27T01:29:35;3.40;99.90
6740;DHT22;3407;49.882;10.920;2024-01-27T01:34:31;3.20;99.90
6740;DHT22;3407;49.882;10.920;2024-01-27T01:39:27;3.10;99.90
6740;DHT22;3407;49.882;10.920;2024-01-27T01:44:29;3.10;99.90
6740;DHT22;3407;49.882;10.920;2024-01-27T01:49:25;3.00;1.00
6740;DHT22;3407;49.882;10.920;2024-01-27T01:54:21;2.90;1.00
6740;DHT22;3407;49.882;10.920;2024-01-27T01:59:18;2.90;1.00
6740;DHT22;3407;49.882;10.920;2024-01-27T02:04:13;2.80;1.00
6740;DHT22;3407;49.882;10.920;2024-01-27T02:09:09;2.70;1.00
6740;DHT22;3407;49.882;10.920;2024-01-27T02:14:06;2.60;1.00
6740;DHT22;3407;49.882;10.920;2024-01-27T02:19:01;2.50;1.00
6740;DHT22;3407;49.882;10.920;2024-01-27T02:23:58;2.50;1.00
6740;DHT22;3407;49.882;10.920;2024-01-27T02:28:53;2.40;1.00
6740;DHT22;3407;49.882;10.920;2024-01-27T02:33:48;2.20;1.00
6740;DHT22;3407;49.882;10.920;2024-01-27T02:38:44;2.00;1.00
6740;DHT22;3407;49.882;10.920;2024-01-27T02:43:40;1.80;1.00
6740;DHT22;3407;49.882;10.920;2024-01-27T02:48:35;1.60;1.00
6740;DHT22;3407;49.882;10.920;2024-01-27T02:53:31;1.50;1.00
6740;DHT22;3407;49.882;10.920;2024-01-27T02:58:26;1.50;1.00
6740;DHT22;3407;49.882;10.920;2024-01-27T03:03:22;1.50;1.00
6740;DHT22;3407;49.882;10.920;2024-01-27T03:08:17;1.30;1.00
6740;DHT22;3407;49.882;10.920;2024-01-27T03:13:13;1.20;1.00
6740;DHT22;3407;49.882;10.920;2024-01-27T03:18:08;1.10;1.00
6740;DHT22;3407;49.882;10.920;2024-01-27T03:23:04;1.10;1.00
6740;DHT22;3407;49.882;10.920;2024-01-27T03:28:00;1.10;1.00
6740;DHT22;3407;49.882;10.920;2024-01-27T03:32:56;1.10;1.00
6740;DHT22;3407;49.882;10.920;2024-01-27T03:37:51;0.90;1.00
6740;DHT22;3407;49.882;10.920;2024-01-27T03:42:47;0.60;1.00
6740;DHT22;3407;49.882;10.920;2024-01-27T03:47:42;0.50;1.00
6740;DHT22;3407;49.882;10.920;2024-01-27T03:52:38;0.50;1.00
6740;DHT22;3407;49.882;10.920;2024-01-27T03:57:33;0.40;1.00
6740;DHT22;3407;49.882;10.920;2024-01-27T04:02:29;0.20;1.00
6740;DHT22;3407;49.882;10.920;2024-01-27T04:07:24;0.10;1.00
6740;DHT22;3407;49.882;10.920;2024-01-27T04:12:20;0.10;1.00
6740;DHT22;3407;49.882;10.920;2024-01-27T04:17:15;0.10;1.00
6740;DHT22;3407;49.882;10.920;2024-01-27T04:22:11;0.30;1.00
6740;DHT22;3407;49.882;10.920;2024-01-27T04:27:07;0.10;1.00
6740;DHT22;3407;49.882;10.920;2024-01-27T04:32:02;0.00;1.00
6740;DHT22;3407;49.882;10.920;2024-01-27T04:36:58;-0.10;1.00
6740;DHT22;3407;49.882;10.920;2024-01-27T04:41:53;-0.10;1.00
6740;DHT22;3407;49.882;10.920;2024-01-27T04:46:49;-0.10;1.00
6740;DHT22;3407;49.882;10.920;2024-01-27T04:51:44;0.10;1.00
6740;DHT22;3407;49.882;10.920;2024-01-27T04:56:40;0.10;1.00
6740;DHT22;3407;49.882;10.920;2024-01-27T05:01:36;0.10;1.00
6740;DHT22;3407;49.882;10.920;2024-01-27T05:06:31;0.10;1.00
6740;DHT22;3407;49.882;10.920;2024-01-27T05:11:29;0.00;1.00
6740;DHT22;3407;49.882;10.920;2024-01-27T05:16:27;-0.10;1.00
6740;DHT22;3407;49.882;10.920;2024-01-27T05:21:23;-0.20;1.00
6740;DHT22;3407;49.882;10.920;2024-01-27T05:26:18;-0.20;1.00
6740;DHT22;3407;49.882;10.920;2024-01-27T05:31:14;-0.20;1.00
6740;DHT22;3407;49.882;10.920;2024-01-27T05:36:09;-0.20;1.00
6740;DHT22;3407;49.882;10.920;2024-01-27T05:41:05;-0.50;1.00
6740;DHT22;3407;49.882;10.920;2024-01-27T05:46:00;-0.60;1.00
6740;DHT22;3407;49.882;10.920;2024-01-27T05:50:59;-0.50;1.00
6740;DHT22;3407;49.882;10.920;2024-01-27T05:55:55;-0.40;1.00
6740;DHT22;3407;49.882;10.920;2024-01-27T06:00:52;-0.30;1.00
6740;DHT22;3407;49.882;10.920;2024-01-27T06:05:47;-0.30;1.00
6740;DHT22;3407;49.882;10.920;2024-01-27T06:10:43;-0.40;1.00
6740;DHT22;3407;49.882;10.920;2024-01-27T06:15:38;-0.40;1.00
6740;DHT22;3407;49.882;10.920;2024-01-27T06:20:34;-0.50;1.00
6740;DHT22;3407;49.882;10.920;2024-01-27T06:25:29;-0.60;1.00
6740;DHT22;3407;49.882;10.920;2024-01-27T06:30:25;-0.50;1.00
6740;DHT22;3407;49.882;10.920;2024-01-27T06:35:21;-0.40;1.00
6740;DHT22;3407;49.882;10.920;2024-01-27T06:40:16;-0.40;1.00
6740;DHT22;3407;49.882;10.920;2024-01-27T06:45:12;-0.50;1.00
6740;DHT22;3407;49.882;10.920;2024-01-27T06:50:08;-0.50;1.00
6740;DHT22;3407;49.882;10.920;2024-01-27T06:55:04;-0.50;1.00
6740;DHT22;3407;49.882;10.920;2024-01-27T07:00:02;-0.50;1.00
6740;DHT22;3407;49.882;10.920;2024-01-27T07:04:58;-0.50;1.00
6740;DHT22;3407;49.882;10.920;2024-01-27T07:09:57;-0.50;1.00
6740;DHT22;3407;49.882;10.920;2024-01-27T07:14:53;-0.60;1.00
6740;DHT22;3407;49.882;10.920;2024-01-27T07:19:51;-0.60;1.00
6740;DHT22;3407;49.882;10.920;2024-01-27T07:24:47;-0.60;1.00
6740;DHT22;3407;49.882;10.920;2024-01-27T07:29:46;-0.70;1.00
6740;DHT22;3407;49.882;10.920;2024-01-27T07:34:43;-0.50;1.00
6740;DHT22;3407;49.882;10.920;2024-01-27T07:39:38;-0.40;1.00
6740;DHT22;3407;49.882;10.920;2024-01-27T07:44:34;-0.30;1.00
6740;DHT22;3407;49.882;10.920;2024-01-27T07:49:30;-0.10;1.00
6740;DHT22;3407;49.882;10.920;2024-01-27T07:54:25;-0.10;1.00
6740;DHT22;3407;49.882;10.920;2024-01-27T07:59:21;-0.10;1.00
6740;DHT22;3407;49.882;10.920;2024-01-27T08:04:16;-0.10;1.00
6740;DHT22;3407;49.882;10.920;2024-01-27T08:09:12;0.20;1.00
6740;DHT22;3407;49.882;10.920;2024-01-27T08:14:07;0.50;1.00
6740;DHT22;3407;49.882;10.920;2024-01-27T08:19:03;0.50;1.00
6740;DHT22;3407;49.882;10.920;2024-01-27T08:23:58;0.70;1.00
6740;DHT22;3407;49.882;10.920;2024-01-27T08:28:54;0.90;1.00
6740;DHT22;3407;49.882;10.920;2024-01-27T08:33:51;1.10;1.00
6740;DHT22;3407;49.882;10.920;2024-01-27T08:38:47;1.40;1.00
6740;DHT22;3407;49.882;10.920;2024-01-27T08:43:42;1.70;1.00
6740;DHT22;3407;49.882;10.920;2024-01-27T08:48:38;1.90;1.00
6740;DHT22;3407;49.882;10.920;2024-01-27T08:53:35;2.10;1.00
6740;DHT22;3407;49.882;10.920;2024-01-27T08:58:31;2.50;1.00
6740;DHT22;3407;49.882;10.920;2024-01-27T09:03:27;2.80;1.00
6740;DHT22;3407;49.882;10.920;2024-01-27T09:08:22;3.20;1.00
6740;DHT22;3407;49.882;10.920;2024-01-27T09:13:18;3.50;99.90
6740;DHT22;3407;49.882;10.920;2024-01-27T09:18:13;3.90;99.90
6740;DHT22;3407;49.882;10.920;2024-01-27T09:23:10;4.30;99.90
6740;DHT22;3407;49.882;10.920;2024-01-27T09:28:07;4.90;99.90
6740;DHT22;3407;49.882;10.920;2024-01-27T09:33:02;6.10;1.00
6740;DHT22;3407;49.882;10.920;2024-01-27T09:37:58;7.60;57.40
6740;DHT22;3407;49.882;10.920;2024-01-27T09:42:58;9.00;1.00
6740;DHT22;3407;49.882;10.920;2024-01-27T09:47:56;10.50;99.90
6740;DHT22;3407;49.882;10.920;2024-01-27T09:52:53;12.20;99.90
6740;DHT22;3407;49.882;10.920;2024-01-27T09:57:49;13.30;99.90
6740;DHT22;3407;49.882;10.920;2024-01-27T10:02:46;13.50;99.90
6740;DHT22;3407;49.882;10.920;2024-01-27T10:07:44;13.10;99.90
6740;DHT22;3407;49.882;10.920;2024-01-27T10:12:41;13.50;99.90
6740;DHT22;3407;49.882;10.920;2024-01-27T10:17:37;14.50;99.90
6740;DHT22;3407;49.882;10.920;2024-01-27T10:22:40;15.30;99.90
6740;DHT22;3407;49.882;10.920;2024-01-27T10:27:35;15.40;99.90
6740;DHT22;3407;49.882;10.920;2024-01-27T10:32:31;15.00;99.90
6740;DHT22;3407;49.882;10.920;2024-01-27T10:37:26;15.60;99.90
6740;DHT22;3407;49.882;10.920;2024-01-27T10:42:22;16.10;99.90
6740;DHT22;3407;49.882;10.920;2024-01-27T10:47:19;17.10;99.90
6740;DHT22;3407;49.882;10.920;2024-01-27T10:52:16;17.40;99.90
6740;DHT22;3407;49.882;10.920;2024-01-27T10:57:14;16.10;99.90
6740;DHT22;3407;49.882;10.920;2024-01-27T11:02:13;15.40;99.90
6740;DHT22;3407;49.882;10.920;2024-01-27T11:07:09;14.90;99.90
6740;DHT22;3407;49.882;10.920;2024-01-27T11:12:06;14.40;99.90
6740;DHT22;3407;49.882;10.920;2024-01-27T11:17:02;14.10;99.90
6740;DHT22;3407;49.882;10.920;2024-01-27T11:22:04;13.40;99.90
6740;DHT22;3407;49.882;10.920;2024-01-27T11:27:01;13.50;99.90
6740;DHT22;3407;49.882;10.920;2024-01-27T11:31:57;13.80;99.90
6740;DHT22;3407;49.882;10.920;2024-01-27T11:36:52;14.10;99.90
6740;DHT22;3407;49.882;10.920;2024-01-27T11:41:48;14.40;99.90
6740;DHT22;3407;49.882;10.920;2024-01-27T11:46:44;14.50;99.90
6740;DHT22;3407;49.882;10.920;2024-01-27T11:51:41;14.20;99.90
6740;DHT22;3407;49.882;10.920;2024-01-27T11:56:36;14.50;99.90
6740;DHT22;3407;49.882;10.920;2024-01-27T12:01:32;14.40;99.90
6740;DHT22;3407;49.882;10.920;2024-01-27T12:06:27;14.20;99.90
6740;DHT22;3407;49.882;10.920;2024-01-27T12:11:26;14.30;99.90
6740;DHT22;3407;49.882;10.920;2024-01-27T12:16:22;14.20;99.90
6740;DHT22;3407;49.882;10.920;2024-01-27T12:21:21;13.50;99.90
6740;DHT22;3407;49.882;10.920;2024-01-27T12:26:16;13.90;99.90
6740;DHT22;3407;49.882;10.920;2024-01-27T12:31:12;14.40;99.90
6740;DHT22;3407;49.882;10.920;2024-01-27T12:36:08;14.30;99.90
6740;DHT22;3407;49.882;10.920;2024-01-27T12:41:03;13.50;99.90
6740;DHT22;3407;49.882;10.920;2024-01-27T12:45:59;13.40;99.90
6740;DHT22;3407;49.882;10.920;2024-01-27T12:50:54;13.40;99.90
6740;DHT22;3407;49.882;10.920;2024-01-27T12:55:50;13.20;99.90
6740;DHT22;3407;49.882;10.920;2024-01-27T13:00:45;12.50;99.90
6740;DHT22;3407;49.882;10.920;2024-01-27T13:05:41;12.30;99.90
6740;DHT22;3407;49.882;10.920;2024-01-27T13:10:36;12.10;99.90
6740;DHT22;3407;49.882;10.920;2024-01-27T13:15:32;12.40;99.90
6740;DHT22;3407;49.882;10.920;2024-01-27T13:20:27;12.10;99.90
6740;DHT22;3407;49.882;10.920;2024-01-27T13:25:23;11.80;99.90
6740;DHT22;3407;49.882;10.920;2024-01-27T13:30:19;11.50;99.90
6740;DHT22;3407;49.882;10.920;2024-01-27T13:35:14;11.50;99.90
6740;DHT22;3407;49.882;10.920;2024-01-27T13:40:10;11.50;99.90
6740;DHT22;3407;49.882;10.920;2024-01-27T13:45:06;12.10;99.90
6740;DHT22;3407;49.882;10.920;2024-01-27T13:50:02;12.40;99.90
6740;DHT22;3407;49.882;10.920;2024-01-27T13:54:58;12.20;99.90
6740;DHT22;3407;49.882;10.920;2024-01-27T13:59:53;11.90;99.90
6740;DHT22;3407;49.882;10.920;2024-01-27T14:04:49;11.70;99.90
6740;DHT22;3407;49.882;10.920;2024-01-27T14:09:44;11.50;99.90
6740;DHT22;3407;49.882;10.920;2024-01-27T14:14:43;11.30;99.90
6740;DHT22;3407;49.882;10.920;2024-01-27T14:19:39;11.40;99.90
6740;DHT22;3407;49.882;10.920;2024-01-27T14:24:35;11.70;99.90
6740;DHT22;3407;49.882;10.920;2024-01-27T14:29:31;12.00;99.90
6740;DHT22;3407;49.882;10.920;2024-01-27T14:34:27;12.50;99.90
6740;DHT22;3407;49.882;10.920;2024-01-27T14:39:23;13.10;99.90
6740;DHT22;3407;49.882;10.920;2024-01-27T14:44:18;13.60;99.90
6740;DHT22;3407;49.882;10.920;2024-01-27T14:49:14;14.00;99.90
6740;DHT22;3407;49.882;10.920;2024-01-27T14:54:10;13.90;99.90
6740;DHT22;3407;49.882;10.920;2024-01-27T14:59:06;13.00;99.90
6740;DHT22;3407;49.882;10.920;2024-01-27T15:04:03;12.20;99.90
6740;DHT22;3407;49.882;10.920;2024-01-27T15:08:58;11.30;99.90
6740;DHT22;3407;49.882;10.920;2024-01-27T15:13:54;10.60;99.90
6740;DHT22;3407;49.882;10.920;2024-01-27T15:18:50;10.30;99.90
6740;DHT22;3407;49.882;10.920;2024-01-27T15:23:45;9.80;99.90
6740;DHT22;3407;49.882;10.920;2024-01-27T15:28:41;9.20;99.90
6740;DHT22;3407;49.882;10.920;2024-01-27T15:33:36;8.50;99.90
6740;DHT22;3407;49.882;10.920;2024-01-27T15:38:32;7.80;99.90
6740;DHT22;3407;49.882;10.920;2024-01-27T15:43:28;7.20;99.90
6740;DHT22;3407;49.882;10.920;2024-01-27T15:48:23;6.70;99.90
6740;DHT22;3407;49.882;10.920;2024-01-27T15:53:21;6.30;99.90
6740;DHT22;3407;49.882;10.920;2024-01-27T15:58:17;5.90;99.90
6740;DHT22;3407;49.882;10.920;2024-01-27T16:03:13;5.60;99.90
6740;DHT22;3407;49.882;10.920;2024-01-27T16:08:08;5.30;1.00
6740;DHT22;3407;49.882;10.920;2024-01-27T16:13:05;5.00;1.00
6740;DHT22;3407;49.882;10.920;2024-01-27T16:18:01;4.80;1.00
6740;DHT22;3407;49.882;10.920;2024-01-27T16:22:57;4.60;99.90
6740;DHT22;3407;49.882;10.920;2024-01-27T16:27:52;4.40;99.90
6740;DHT22;3407;49.882;10.920;2024-01-27T16:32:48;4.20;99.90
6740;DHT22;3407;49.882;10.920;2024-01-27T16:37:43;4.00;1.00
6740;DHT22;3407;49.882;10.920;2024-01-27T16:42:39;3.80;99.90
6740;DHT22;3407;49.882;10.920;2024-01-27T16:47:35;3.50;99.90
6740;DHT22;3407;49.882;10.920;2024-01-27T16:52:30;3.30;99.90
6740;DHT22;3407;49.882;10.920;2024-01-27T16:57:26;3.20;99.90
6740;DHT22;3407;49.882;10.920;2024-01-27T17:02:23;3.00;1.00
6740;DHT22;3407;49.882;10.920;2024-01-27T17:07:19;2.80;1.00
6740;DHT22;3407;49.882;10.920;2024-01-27T17:12:15;2.60;1.00
6740;DHT22;3407;49.882;10.920;2024-01-27T17:17:11;2.50;99.90
6740;DHT22;3407;49.882;10.920;2024-01-27T17:22:06;2.50;1.00
6740;DHT22;3407;49.882;10.920;2024-01-27T17:27:02;2.50;93.40
6740;DHT22;3407;49.882;10.920;2024-01-27T17:31:57;2.40;99.90
6740;DHT22;3407;49.882;10.920;2024-01-27T17:36:53;2.30;99.90
6740;DHT22;3407;49.882;10.920;2024-01-27T17:41:48;2.20;99.90
6740;DHT22;3407;49.882;10.920;2024-01-27T17:46:44;2.10;1.00
6740;DHT22;3407;49.882;10.920;2024-01-27T17:51:39;1.90;99.90
6740;DHT22;3407;49.882;10.920;2024-01-27T17:56:35;1.70;1.00
6740;DHT22;3407;49.882;10.920;2024-01-27T18:01:30;1.40;1.00
6740;DHT22;3407;49.882;10.920;2024-01-27T18:06:26;1.30;1.00
6740;DHT22;3407;49.882;10.920;2024-01-27T18:11:24;1.10;1.00
6740;DHT22;3407;49.882;10.920;2024-01-27T18:16:19;1.10;99.90
6740;DHT22;3407;49.882;10.920;2024-01-27T18:21:15;1.00;99.90
6740;DHT22;3407;49.882;10.920;2024-01-27T18:26:10;1.10;1.00
6740;DHT22;3407;49.882;10.920;2024-01-27T18:31:06;1.10;99.90
6740;DHT22;3407;49.882;10.920;2024-01-27T18:36:02;1.10;99.90
6740;DHT22;3407;49.882;10.920;2024-01-27T18:40:57;1.10;99.90
6740;DHT22;3407;49.882;10.920;2024-01-27T18:45:53;0.90;38.10
6740;DHT22;3407;49.882;10.920;2024-01-27T18:50:51;0.80;99.90
6740;DHT22;3407;49.882;10.920;2024-01-27T18:55:46;0.70;99.90
6740;DHT22;3407;49.882;10.920;2024-01-27T19:00:43;0.60;99.90
6740;DHT22;3407;49.882;10.920;2024-01-27T19:05:38;0.50;99.90
6740;DHT22;3407;49.882;10.920;2024-01-27T19:10:34;0.40;99.90
6740;DHT22;3407;49.882;10.920;2024-01-27T19:15:29;0.40;99.90
6740;DHT22;3407;49.882;10.920;2024-01-27T19:20:27;0.30;1.00
6740;DHT22;3407;49.882;10.920;2024-01-27T19:25:22;0.10;1.00
6740;DHT22;3407;49.882;10.920;2024-01-27T19:30:19;0.00;1.00
6740;DHT22;3407;49.882;10.920;2024-01-27T19:35:16;0.00;1.00
6740;DHT22;3407;49.882;10.920;2024-01-27T19:40:13;-0.10;1.00
6740;DHT22;3407;49.882;10.920;2024-01-27T19:45:09;-0.10;1.00
6740;DHT22;3407;49.882;10.920;2024-01-27T19:50:05;-0.10;1.00
6740;DHT22;3407;49.882;10.920;2024-01-27T19:55:01;-0.20;1.00
6740;DHT22;3407;49.882;10.920;2024-01-27T19:59:56;-0.30;1.00
6740;DHT22;3407;49.882;10.920;2024-01-27T20:04:52;-0.40;1.00
6740;DHT22;3407;49.882;10.920;2024-01-27T20:09:47;-0.40;1.00
6740;DHT22;3407;49.882;10.920;2024-01-27T20:14:43;-0.30;1.00
6740;DHT22;3407;49.882;10.920;2024-01-27T20:19:40;-0.40;1.00
6740;DHT22;3407;49.882;10.920;2024-01-27T20:24:35;-0.40;1.00
6740;DHT22;3407;49.882;10.920;2024-01-27T20:29:31;-0.40;1.00
6740;DHT22;3407;49.882;10.920;2024-01-27T20:34:27;-0.30;1.00
6740;DHT22;3407;49.882;10.920;2024-01-27T20:39:22;-0.30;1.00
6740;DHT22;3407;49.882;10.920;2024-01-27T20:44:18;-0.30;1.00
6740;DHT22;3407;49.882;10.920;2024-01-27T20:49:13;-0.40;1.00
6740;DHT22;3407;49.882;10.920;2024-01-27T20:54:09;-0.50;1.00
6740;DHT22;3407;49.882;10.920;2024-01-27T20:59:04;-0.60;1.00
6740;DHT22;3407;49.882;10.920;2024-01-27T21:04:00;-0.70;1.00
6740;DHT22;3407;49.882;10.920;2024-01-27T21:08:55;-0.80;1.00
6740;DHT22;3407;49.882;10.920;2024-01-27T21:13:51;-0.80;1.00
6740;DHT22;3407;49.882;10.920;2024-01-27T21:18:46;-0.80;1.00
6740;DHT22;3407;49.882;10.920;2024-01-27T21:23:42;-0.80;1.00
6740;DHT22;3407;49.882;10.920;2024-01-27T21:28:38;-0.80;1.00
6740;DHT22;3407;49.882;10.920;2024-01-27T21:33:33;-0.70;1.00
6740;DHT22;3407;49.882;10.920;2024-01-27T21:38:29;-0.90;1.00
6740;DHT22;3407;49.882;10.920;2024-01-27T21:43:24;-0.90;1.00
6740;DHT22;3407;49.882;10.920;2024-01-27T21:48:20;-0.90;1.00
6740;DHT22;3407;49.882;10.920;2024-01-27T21:53:15;-1.00;1.00
6740;DHT22;3407;49.882;10.920;2024-01-27T21:58:11;-1.00;1.00
6740;DHT22;3407;49.882;10.920;2024-01-27T22:03:07;-0.90;1.00
6740;DHT22;3407;49.882;10.920;2024-01-27T22:08:03;-0.90;1.00
6740;DHT22;3407;49.882;10.920;2024-01-27T22:12:59;-0.90;1.00
6740;DHT22;3407;49.882;10.920;2024-01-27T22:17:54;-0.90;1.00
6740;DHT22;3407;49.882;10.920;2024-01-27T22:22:50;-1.10;1.00
6740;DHT22;3407;49.882;10.920;2024-01-27T22:27:45;-1.20;1.00
6740;DHT22;3407;49.882;10.920;2024-01-27T22:32:41;-1.30;1.00
6740;DHT22;3407;49.882;10.920;2024-01-27T22:37:36;-1.40;1.00
6740;DHT22;3407;49.882;10.920;2024-01-27T22:42:32;-1.40;1.00
6740;DHT22;3407;49.882;10.920;2024-01-27T22:47:30;-1.40;1.00
6740;DHT22;3407;49.882;10.920;2024-01-27T22:52:26;-1.50;1.00
6740;DHT22;3407;49.882;10.920;2024-01-27T22:57:22;-1.50;1.00
6740;DHT22;3407;49.882;10.920;2024-01-27T23:02:17;-1.50;1.00
6740;DHT22;3407;49.882;10.920;2024-01-27T23:07:13;-1.60;1.00
6740;DHT22;3407;49.882;10.920;2024-01-27T23:12:08;-1.70;1.00
6740;DHT22;3407;49.882;10.920;2024-01-27T23:17:06;-1.70;1.00
6740;DHT22;3407;49.882;10.920;2024-01-27T23:22:01;-1.70;1.00
6740;DHT22;3407;49.882;10.920;2024-01-27T23:26:57;-1.70;1.00
6740;DHT22;3407;49.882;10.920;2024-01-27T23:31:52;-1.80;1.00
6740;DHT22;3407;49.882;10.920;2024-01-27T23:36:48;-1.80;1.00
6740;DHT22;3407;49.882;10.920;2024-01-27T23:41:45;-1.90;1.00
6740;DHT22;3407;49.882;10.920;2024-01-27T23:46:40;-1.80;1.00
6740;DHT22;3407;49.882;10.920;2024-01-27T23:51:36;-1.90;1.00
6740;DHT22;3407;49.882;10.920;2024-01-27T23:56:33;-1.90;1.00
